createdAt,value
2023-05-04T00:01:23.462Z,5.80
2023-05-04T00:04:17.335Z,6.38
2023-05-04T00:07:11.283Z,5.10
2023-05-04T00:09:59.887Z,6.13
2023-05-04T00:12:53.281Z,8.07
2023-05-04T00:15:40.419Z,6.45
2023-05-04T00:18:34.269Z,6.03
2023-05-04T00:21:28.314Z,5.85
2023-05-04T00:24:15.476Z,6.57
2023-05-04T00:27:09.264Z,7.35
2023-05-04T00:29:56.325Z,6.28
2023-05-04T00:32:50.392Z,6.15
2023-05-04T00:35:37.535Z,6.13
2023-05-04T00:38:31.358Z,6.00
2023-05-04T00:41:26.306Z,5.97
2023-05-04T00:44:20.340Z,6.47
2023-05-04T00:47:08.518Z,7.93
2023-05-04T00:50:02.670Z,7.90
2023-05-04T00:52:58.355Z,7.72
2023-05-04T00:55:45.438Z,7.22
2023-05-04T00:58:40.343Z,6.70
2023-05-04T01:01:34.430Z,6.30
2023-05-04T01:04:28.329Z,7.63
2023-05-04T01:07:57.374Z,7.10
2023-05-04T01:11:49.395Z,7.65
2023-05-04T01:14:37.212Z,7.95
2023-05-04T01:17:31.396Z,6.28
2023-05-04T01:20:18.867Z,6.78
2023-05-04T01:23:13.392Z,7.30
2023-05-04T01:26:18.404Z,7.38
2023-05-04T01:29:30.408Z,7.20
2023-05-04T01:32:25.466Z,7.22
2023-05-04T01:35:13.501Z,7.10
2023-05-04T01:38:07.394Z,6.60
2023-05-04T01:41:01.470Z,5.93
2023-05-04T01:43:54.987Z,6.10
2023-05-04T01:46:48.443Z,6.95
2023-05-04T01:49:35.642Z,6.13
2023-05-04T01:52:29.440Z,6.53
2023-05-04T01:55:16.603Z,6.28
2023-05-04T01:58:10.463Z,6.47
2023-05-04T02:01:05.480Z,6.57
2023-05-04T02:03:59.585Z,7.20
2023-05-04T02:06:47.970Z,5.57
2023-05-04T02:09:42.500Z,5.43
2023-05-04T02:12:29.598Z,5.60
2023-05-04T02:15:23.479Z,6.18
2023-05-04T02:18:10.821Z,5.03
2023-05-04T02:21:04.468Z,5.38
2023-05-04T02:23:58.465Z,6.07
2023-05-04T02:26:52.561Z,6.18
2023-05-04T02:29:46.497Z,6.60
2023-05-04T02:32:40.531Z,5.43
2023-05-04T02:35:27.656Z,7.25
2023-05-04T02:38:21.596Z,6.38
2023-05-04T02:41:08.773Z,6.10
2023-05-04T02:44:02.530Z,6.60
2023-05-04T02:46:49.647Z,6.03
2023-05-04T02:49:43.488Z,6.00
2023-05-04T02:52:30.649Z,5.40
2023-05-04T02:55:24.559Z,5.55
2023-05-04T02:58:11.650Z,5.90
2023-05-04T03:01:05.547Z,5.97
2023-05-04T03:03:52.669Z,6.00
2023-05-04T03:06:46.513Z,4.97
2023-05-04T03:09:40.572Z,5.10
2023-05-04T03:12:34.593Z,5.13
2023-05-04T03:15:28.550Z,5.50
2023-05-04T03:18:15.725Z,5.60
2023-05-04T03:21:09.581Z,5.72
2023-05-04T03:23:56.643Z,5.60
2023-05-04T03:26:50.603Z,5.22
2023-05-04T03:29:44.615Z,5.45
2023-05-04T03:32:31.879Z,5.22
2023-05-04T03:35:25.574Z,5.60
2023-05-04T03:38:12.809Z,5.82
2023-05-04T03:41:06.638Z,6.25
2023-05-04T03:43:53.707Z,6.00
2023-05-04T03:46:47.652Z,5.63
2023-05-04T03:49:35.562Z,5.55
2023-05-04T03:52:29.593Z,5.30
2023-05-04T03:55:16.721Z,5.15
2023-05-04T03:58:10.631Z,5.72
2023-05-04T04:00:57.772Z,5.45
2023-05-04T04:03:51.945Z,6.00
2023-05-04T04:06:40.464Z,5.95
2023-05-04T04:09:35.661Z,5.47
2023-05-04T04:12:22.775Z,5.53
2023-05-04T04:15:16.651Z,5.72
2023-05-04T04:18:03.889Z,5.43
2023-05-04T04:20:57.636Z,6.40
2023-05-04T04:23:44.722Z,5.60
2023-05-04T04:26:38.660Z,5.80
2023-05-04T04:29:32.700Z,5.45
2023-05-04T04:32:27.704Z,5.88
2023-05-04T04:35:21.732Z,5.85
2023-05-04T04:38:09.199Z,6.20
2023-05-04T04:41:02.749Z,6.18
2023-05-04T04:43:49.779Z,6.03
2023-05-04T04:46:43.784Z,6.18
2023-05-04T04:49:31.005Z,6.15
2023-05-04T04:52:24.717Z,7.25
2023-05-04T04:55:11.971Z,5.93
2023-05-04T04:58:05.740Z,6.28
2023-05-04T05:00:53.368Z,6.47
2023-05-04T05:03:46.745Z,6.63
2023-05-04T05:06:33.777Z,5.68
2023-05-04T05:09:27.728Z,5.68
2023-05-04T05:12:21.813Z,6.03
2023-05-04T05:15:09.466Z,5.55
2023-05-04T05:18:03.833Z,4.90
2023-05-04T05:20:57.894Z,5.40
2023-05-04T05:23:51.743Z,6.03
2023-05-04T05:26:38.805Z,5.50
2023-05-04T05:29:32.757Z,5.78
2023-05-04T05:32:26.829Z,5.93
2023-05-04T05:35:14.005Z,7.20
2023-05-04T05:38:08.774Z,6.93
2023-05-04T05:41:02.832Z,6.30
2023-05-04T05:43:56.789Z,5.90
2023-05-04T05:46:50.847Z,5.95
2023-05-04T05:49:46.277Z,5.40
2023-05-04T05:52:33.745Z,5.65
2023-05-04T05:55:27.878Z,4.88
2023-05-04T05:58:21.811Z,5.70
2023-05-04T06:01:15.852Z,5.55
2023-05-04T06:04:03.242Z,6.35
2023-05-04T06:06:56.839Z,5.80
2023-05-04T06:09:44.154Z,5.20
2023-05-04T06:12:37.886Z,5.03
2023-05-04T06:15:25.050Z,4.60
2023-05-04T06:18:18.874Z,5.05
2023-05-04T06:21:05.956Z,4.60
2023-05-04T06:23:59.858Z,4.40
2023-05-04T06:26:47.024Z,4.38
2023-05-04T06:29:40.917Z,4.50
2023-05-04T06:32:34.922Z,5.05
2023-05-04T06:35:22.123Z,4.70
2023-05-04T06:38:15.872Z,4.97
2023-05-04T06:41:09.936Z,5.43
2023-05-04T06:43:58.838Z,5.03
2023-05-04T06:46:52.876Z,4.97
2023-05-04T06:49:40.054Z,4.93
2023-05-04T06:52:35.942Z,5.05
2023-05-04T06:55:23.128Z,4.53
2023-05-04T06:58:16.972Z,4.45
2023-05-04T07:01:04.193Z,4.07
2023-05-04T07:03:58.069Z,3.50
2023-05-04T07:06:51.956Z,4.07
2023-05-04T07:09:45.953Z,4.25
2023-05-04T07:12:33.145Z,3.17
2023-05-04T07:15:27.891Z,4.75
2023-05-04T07:18:21.963Z,4.53
2023-05-04T07:21:28.210Z,4.57
2023-05-04T07:24:16.182Z,3.97
2023-05-04T07:27:18.029Z,4.22
2023-05-04T07:30:06.918Z,3.42
2023-05-04T07:33:01.012Z,3.80
2023-05-04T07:35:54.984Z,5.00
2023-05-04T07:38:49.041Z,4.63
2023-05-04T07:41:43.976Z,3.90
2023-05-04T07:44:31.784Z,3.13
2023-05-04T07:47:25.033Z,3.78
2023-05-04T07:50:12.735Z,4.03
2023-05-04T07:53:06.245Z,3.67
2023-05-04T07:56:01.066Z,3.10
2023-05-04T07:58:55.020Z,3.10
2023-05-04T08:01:49.106Z,3.25
2023-05-04T08:04:36.668Z,3.95
2023-05-04T08:07:30.040Z,2.95
2023-05-04T08:10:17.236Z,2.63
2023-05-04T08:13:14.141Z,3.50
2023-05-04T08:16:07.996Z,4.15
2023-05-04T08:18:59.755Z,3.40
2023-05-04T08:21:53.120Z,3.20
2023-05-04T08:24:47.162Z,2.97
2023-05-04T08:27:34.274Z,3.90
2023-05-04T08:30:28.043Z,2.80
2023-05-04T08:33:15.230Z,3.20
2023-05-04T08:36:11.081Z,2.58
2023-05-04T08:38:58.324Z,2.55
2023-05-04T08:41:52.083Z,3.20
2023-05-04T08:44:39.273Z,2.58
2023-05-04T08:47:34.104Z,2.47
2023-05-04T08:50:28.073Z,2.40
2023-05-04T08:53:25.114Z,2.30
2023-05-04T08:56:13.796Z,2.45
2023-05-04T08:59:08.155Z,2.95
2023-05-04T09:02:05.178Z,2.30
2023-05-04T09:04:53.351Z,2.30
2023-05-04T09:07:47.089Z,2.08
2023-05-04T09:10:34.714Z,2.35
2023-05-04T09:13:28.167Z,2.30
2023-05-04T09:16:16.353Z,2.80
2023-05-04T09:19:11.124Z,1.85
2023-05-04T09:21:58.268Z,2.20
2023-05-04T09:24:53.164Z,2.13
2023-05-04T09:27:49.148Z,2.15
2023-05-04T09:30:43.206Z,2.20
2023-05-04T09:33:37.126Z,2.30
2023-05-04T09:36:31.186Z,2.30
2023-05-04T09:39:25.157Z,2.63
2023-05-04T09:42:18.947Z,2.70
2023-05-04T09:45:15.248Z,2.53
2023-05-04T09:48:02.475Z,2.50
2023-05-04T09:51:07.231Z,2.55
2023-05-04T09:53:55.165Z,2.55
2023-05-04T09:56:55.222Z,2.47
2023-05-04T09:59:49.191Z,2.33
2023-05-04T10:02:43.253Z,2.60
2023-05-04T10:05:37.201Z,2.00
2023-05-04T10:08:32.254Z,1.83
2023-05-04T10:11:27.189Z,2.10
2023-05-04T10:14:21.207Z,1.85
2023-05-04T10:17:45.279Z,2.70
2023-05-04T10:20:45.936Z,3.00
2023-05-04T10:23:51.220Z,1.83
2023-05-04T10:27:06.346Z,1.65
2023-05-04T10:29:54.379Z,2.28
2023-05-04T10:32:48.278Z,1.60
2023-05-04T10:35:42.272Z,1.80
2023-05-04T10:38:36.829Z,2.22
2023-05-04T10:41:30.255Z,1.70
2023-05-04T10:44:47.268Z,2.30
2023-05-04T10:47:42.365Z,2.15
2023-05-04T10:50:29.548Z,2.05
2023-05-04T10:53:26.275Z,2.95
2023-05-04T10:56:33.282Z,2.55
2023-05-04T10:59:27.313Z,2.83
2023-05-04T11:02:23.747Z,3.25
2023-05-04T11:05:24.275Z,2.92
2023-05-04T11:08:19.492Z,2.47
2023-05-04T11:11:14.346Z,2.72
2023-05-04T11:14:01.662Z,3.10
2023-05-04T11:16:55.525Z,2.30
2023-05-04T11:19:49.761Z,2.75
2023-05-04T11:22:44.302Z,3.00
2023-05-04T11:25:32.292Z,2.88
2023-05-04T11:28:26.388Z,3.45
2023-05-04T11:31:27.374Z,3.60
2023-05-04T11:34:20.163Z,3.58
2023-05-04T11:37:14.310Z,3.15
2023-05-04T11:40:08.387Z,2.80
2023-05-04T11:42:57.571Z,3.20
2023-05-04T11:45:53.706Z,2.80
2023-05-04T11:48:47.357Z,3.22
2023-05-04T11:51:34.694Z,2.85
2023-05-04T11:54:28.363Z,2.85
2023-05-04T11:57:31.363Z,2.30
2023-05-04T12:00:25.365Z,2.78
2023-05-04T12:03:23.421Z,2.78
2023-05-04T12:06:18.431Z,2.90
2023-05-04T12:09:06.593Z,3.97
2023-05-04T12:12:02.399Z,3.67
2023-05-04T12:14:54.301Z,3.95
2023-05-04T12:17:51.464Z,3.78
2023-05-04T12:20:38.717Z,4.18
2023-05-04T12:23:32.434Z,4.10
2023-05-04T12:26:19.910Z,3.63
2023-05-04T12:29:14.396Z,4.55
2023-05-04T12:32:08.500Z,3.80
2023-05-04T12:34:55.665Z,4.32
2023-05-04T12:37:49.446Z,3.65
2023-05-04T12:40:43.790Z,4.07
2023-05-04T12:43:44.445Z,4.75
2023-05-04T12:46:31.913Z,3.50
2023-05-04T12:49:25.461Z,3.30
2023-05-04T12:52:19.443Z,6.10
2023-05-04T12:55:07.452Z,3.95
2023-05-04T12:58:01.503Z,5.55
2023-05-04T13:00:49.158Z,5.20
2023-05-04T13:03:42.672Z,5.68
2023-05-04T13:06:30.227Z,4.63
2023-05-04T13:09:23.530Z,4.50
2023-05-04T13:12:10.725Z,4.47
2023-05-04T13:15:04.648Z,6.80
2023-05-04T13:17:52.543Z,5.93
2023-05-04T13:20:53.495Z,5.75
2023-05-04T13:23:47.560Z,5.63
2023-05-04T13:26:41.553Z,5.07
2023-05-04T13:29:35.609Z,6.30
2023-05-04T13:32:29.554Z,4.30
2023-05-04T13:35:17.050Z,5.80
2023-05-04T13:38:10.571Z,6.18
2023-05-04T13:40:57.890Z,5.72
2023-05-04T13:43:51.592Z,7.35
2023-05-04T13:46:38.761Z,6.53
2023-05-04T13:49:32.580Z,6.05
2023-05-04T13:52:26.570Z,7.60
2023-05-04T13:55:14.287Z,6.47
2023-05-04T13:58:07.635Z,5.35
2023-05-04T14:01:02.659Z,7.50
2023-05-04T14:03:49.740Z,6.53
2023-05-04T14:06:43.628Z,6.22
2023-05-04T14:09:30.833Z,5.80
2023-05-04T14:12:26.558Z,5.18
2023-05-04T14:15:13.692Z,7.18
2023-05-04T14:18:07.682Z,5.60
2023-05-04T14:20:54.885Z,5.53
2023-05-04T14:23:48.625Z,5.38
2023-05-04T14:26:42.593Z,5.20
2023-05-04T14:29:29.769Z,5.50
2023-05-04T14:32:23.640Z,5.70
2023-05-04T14:35:18.653Z,5.38
2023-05-04T14:38:05.746Z,6.97
2023-05-04T14:41:01.662Z,5.85
2023-05-04T14:43:55.608Z,6.13
2023-05-04T14:46:42.746Z,5.90
2023-05-04T14:49:37.739Z,6.85
2023-05-04T14:52:32.635Z,7.60
2023-05-04T14:55:19.877Z,7.30
2023-05-04T14:58:15.703Z,6.10
2023-05-04T15:01:09.844Z,6.70
2023-05-04T15:04:03.658Z,7.93
2023-05-04T15:06:52.354Z,7.32
2023-05-04T15:09:45.662Z,6.35
2023-05-04T15:12:39.738Z,6.15
2023-05-04T15:15:26.973Z,5.90
2023-05-04T15:18:20.695Z,6.45
2023-05-04T15:21:07.819Z,6.13
2023-05-04T15:24:01.694Z,6.50
2023-05-04T15:26:48.770Z,6.35
2023-05-04T15:29:42.727Z,5.78
2023-05-04T15:32:36.779Z,5.50
2023-05-04T15:35:23.910Z,5.45
2023-05-04T15:38:17.718Z,8.10
2023-05-04T15:41:12.747Z,6.93
2023-05-04T15:44:07.709Z,6.57
2023-05-04T15:47:01.878Z,7.35
2023-05-04T15:49:55.769Z,7.30
2023-05-04T15:52:43.113Z,7.88
2023-05-04T15:55:36.960Z,7.32
2023-05-04T15:58:24.068Z,6.82
2023-05-04T16:01:20.808Z,6.28
2023-05-04T16:04:15.108Z,7.22
2023-05-04T16:07:02.307Z,5.50
2023-05-04T16:09:55.793Z,6.28
2023-05-04T16:12:42.980Z,5.97
2023-05-04T16:15:37.750Z,6.60
2023-05-04T16:18:31.831Z,5.32
2023-05-04T16:21:25.871Z,7.45
2023-05-04T16:24:19.779Z,5.95
2023-05-04T16:27:06.845Z,5.70
2023-05-04T16:30:00.948Z,7.30
2023-05-04T16:32:48.111Z,7.30
2023-05-04T16:35:42.852Z,7.05
2023-05-04T16:38:36.854Z,5.63
2023-05-04T16:41:24.051Z,7.13
2023-05-04T16:44:17.861Z,5.53
2023-05-04T16:47:11.897Z,5.50
2023-05-04T16:49:59.207Z,7.35
2023-05-04T16:52:52.832Z,5.95
2023-05-04T16:55:46.874Z,6.47
2023-05-04T16:58:33.997Z,4.68
2023-05-04T17:01:28.058Z,4.63
2023-05-04T17:04:15.247Z,5.35
2023-05-04T17:07:10.757Z,4.95
2023-05-04T17:09:58.222Z,5.05
2023-05-04T17:12:51.886Z,4.00
2023-05-04T17:15:45.884Z,4.38
2023-05-04T17:18:39.873Z,5.32
2023-05-04T17:21:33.918Z,4.43
2023-05-04T17:24:21.179Z,4.95
2023-05-04T17:27:14.923Z,5.03
2023-05-04T17:30:02.286Z,4.65
2023-05-04T17:32:55.983Z,4.80
2023-05-04T17:35:49.884Z,4.95
2023-05-04T17:38:43.981Z,4.28
2023-05-04T17:41:37.993Z,3.67
2023-05-04T17:44:32.849Z,4.50
2023-05-04T17:47:27.066Z,4.95
2023-05-04T17:50:21.151Z,5.03
2023-05-04T17:53:14.961Z,3.88
2023-05-04T17:56:08.994Z,3.60
2023-05-04T17:58:56.238Z,3.60
2023-05-04T18:01:50.061Z,4.75
2023-05-04T18:04:37.541Z,3.55
2023-05-04T18:07:31.055Z,3.40
2023-05-04T18:10:18.518Z,4.25
2023-05-04T18:13:12.088Z,4.15
2023-05-04T18:16:06.083Z,3.97
2023-05-04T18:19:00.012Z,4.22
2023-05-04T18:21:54.079Z,4.55
2023-05-04T18:24:47.973Z,4.72
2023-05-04T18:27:35.658Z,5.05
2023-05-04T18:30:29.043Z,5.32
2023-05-04T18:33:23.068Z,4.45
2023-05-04T18:36:10.302Z,4.30
2023-05-04T18:39:07.038Z,5.03
2023-05-04T18:42:01.081Z,4.03
2023-05-04T18:44:48.368Z,4.97
2023-05-04T18:47:42.108Z,4.70
2023-05-04T18:50:29.559Z,5.70
2023-05-04T18:53:23.049Z,5.43
2023-05-04T18:56:17.095Z,7.90
2023-05-04T18:59:06.103Z,6.97
2023-05-04T19:02:00.142Z,6.25
2023-05-04T19:04:54.089Z,6.20
2023-05-04T19:07:41.483Z,5.70
2023-05-04T19:10:35.082Z,5.80
2023-05-04T19:13:22.259Z,5.03
2023-05-04T19:16:19.322Z,5.53
2023-05-04T19:19:06.745Z,5.60
2023-05-04T19:22:10.238Z,4.75
2023-05-04T19:24:57.457Z,4.65
2023-05-04T19:27:51.130Z,4.75
2023-05-04T19:30:39.740Z,4.47
2023-05-04T19:33:44.478Z,4.18
2023-05-04T19:36:39.123Z,4.55
2023-05-04T19:39:33.190Z,4.15
2023-05-04T19:42:20.436Z,3.90
2023-05-04T19:45:15.100Z,4.10
2023-05-04T19:48:11.180Z,3.85
2023-05-04T19:51:05.145Z,3.35
2023-05-04T19:53:52.331Z,3.60
2023-05-04T19:56:46.133Z,3.30
2023-05-04T19:59:34.017Z,5.13
2023-05-04T20:02:28.254Z,4.05
2023-05-04T20:05:15.487Z,3.78
2023-05-04T20:08:09.225Z,3.83
2023-05-04T20:10:56.575Z,3.90
2023-05-04T20:13:50.210Z,3.35
2023-05-04T20:16:44.359Z,4.55
2023-05-04T20:19:31.790Z,3.80
2023-05-04T20:22:25.192Z,4.10
2023-05-04T20:25:13.065Z,3.60
2023-05-04T20:28:07.215Z,3.67
2023-05-04T20:30:54.334Z,3.33
2023-05-04T20:33:48.171Z,4.18
2023-05-04T20:36:42.225Z,3.17
2023-05-04T20:39:29.289Z,3.83
2023-05-04T20:42:23.261Z,3.47
2023-05-04T20:45:17.195Z,4.10
2023-05-04T20:48:11.189Z,3.00
2023-05-04T20:51:12.796Z,3.20
2023-05-04T20:54:08.222Z,3.60
2023-05-04T20:56:55.317Z,3.50
2023-05-04T20:59:49.247Z,3.90
2023-05-04T21:02:43.319Z,4.45
2023-05-04T21:05:30.551Z,3.70
2023-05-04T21:08:31.258Z,3.63
2023-05-04T21:11:25.417Z,3.20
2023-05-04T21:14:12.641Z,3.70
2023-05-04T21:17:06.281Z,3.17
2023-05-04T21:20:00.300Z,3.80
2023-05-04T21:22:54.248Z,3.80
2023-05-04T21:25:48.270Z,3.67
2023-05-04T21:28:42.301Z,3.80
2023-05-04T21:31:29.518Z,3.95
2023-05-04T21:34:24.331Z,3.70
2023-05-04T21:37:11.549Z,3.60
2023-05-04T21:40:05.532Z,3.83
2023-05-04T21:42:59.355Z,3.90
2023-05-04T21:45:46.585Z,2.97
2023-05-04T21:48:40.267Z,3.30
2023-05-04T21:51:35.354Z,3.35
2023-05-04T21:54:30.347Z,3.45
2023-05-04T21:57:17.563Z,3.33
2023-05-04T22:00:18.300Z,3.35
2023-05-04T22:03:05.457Z,3.00
2023-05-04T22:06:07.318Z,3.13
2023-05-04T22:08:54.428Z,3.45
2023-05-04T22:11:48.413Z,3.75
2023-05-04T22:14:42.616Z,2.97
2023-05-04T22:17:29.831Z,3.25
2023-05-04T22:20:23.355Z,3.30
2023-05-04T22:23:17.375Z,2.72
2023-05-04T22:26:11.373Z,3.08
2023-05-04T22:28:58.514Z,3.15
2023-05-04T22:31:52.344Z,3.08
2023-05-04T22:34:39.425Z,3.00
2023-05-04T22:37:33.414Z,2.70
2023-05-04T22:40:20.678Z,3.03
2023-05-04T22:43:14.406Z,2.80
2023-05-04T22:46:08.438Z,3.28
2023-05-04T22:49:02.442Z,3.72
2023-05-04T22:51:56.407Z,3.60
2023-05-04T22:54:43.518Z,3.75
2023-05-04T22:57:37.477Z,3.15
2023-05-04T23:00:24.746Z,3.72
2023-05-04T23:03:18.563Z,4.95
2023-05-04T23:06:12.128Z,4.65
2023-05-04T23:09:08.480Z,4.80
2023-05-04T23:12:02.486Z,4.28
2023-05-04T23:14:59.490Z,5.50
2023-05-04T23:17:53.607Z,4.80
2023-05-04T23:20:47.471Z,4.05
2023-05-04T23:23:36.061Z,4.45
2023-05-04T23:26:30.467Z,4.30
2023-05-04T23:29:24.470Z,4.88
2023-05-04T23:32:18.443Z,7.10
2023-05-04T23:35:12.499Z,7.82
2023-05-04T23:37:59.657Z,7.07
2023-05-04T23:40:53.508Z,8.00
2023-05-04T23:43:40.772Z,8.75
2023-05-04T23:46:34.496Z,8.20
2023-05-04T23:49:28.513Z,8.27
2023-05-04T23:52:15.769Z,8.35
2023-05-04T23:55:10.549Z,7.28
2023-05-04T23:58:04.618Z,7.15
